Time;durP1;ratioP1;P1;durP2;ratioP2;P2;SDS_P1;SDS_P2;PMS_P1;PMS_P2;Temp;Humidity;BMP_temperature;BMP_pressure;BME280_temperature;BME280_humidity;BME280_pressure;Samples;Min_cycle;Max_cycle;Signal;HPM_P1;HPM_P2
2023/04/18 00:02:38;;;;;;;19.77;11.38;;;;;;;-146.07;100.00;70291.31;10417938;28;20593;-71
2023/04/18 00:07:39;;;;;;;19.98;11.38;;;;;;;-146.07;100.00;70291.31;10421756;28;20064;-72
2023/04/18 00:12:39;;;;;;;23.33;12.05;;;;;;;-146.07;100.00;70291.31;10431229;28;20039;-72
2023/04/18 00:17:40;;;;;;;16.38;9.32;;;;;;;-146.07;100.00;70291.31;10430261;28;20082;-72
2023/04/18 00:22:41;;;;;;;18.77;10.23;;;;;;;-146.07;100.00;70291.31;10430291;28;20090;-71
2023/04/18 00:27:41;;;;;;;18.55;10.40;;;;;;;-146.07;100.00;70291.31;10430174;28;20420;-71
2023/04/18 00:32:42;;;;;;;19.35;11.30;;;;;;;-146.07;100.00;70291.31;10430157;28;20130;-72
2023/04/18 00:37:42;;;;;;;16.15;8.48;;;;;;;-146.07;100.00;70291.31;10423419;28;20067;-72
2023/04/18 00:42:43;;;;;;;17.70;9.80;;;;;;;-146.07;100.00;70291.31;10430632;28;20218;-73
2023/04/18 00:47:43;;;;;;;15.65;9.80;;;;;;;-146.07;100.00;70291.31;10429279;28;20450;-73
2023/04/18 00:52:44;;;;;;;16.48;9.30;;;;;;;-146.07;100.00;70291.31;10429308;28;20028;-70
2023/04/18 00:57:45;;;;;;;18.17;9.45;;;;;;;-146.07;100.00;70291.31;10428358;28;20048;-73
2023/04/18 01:02:48;;;;;;;11.15;7.68;;;;;;;-146.07;100.00;70291.31;10428723;28;20043;-71
2023/04/18 01:07:49;;;;;;;15.57;9.05;;;;;;;-146.07;100.00;70291.31;10427861;28;20179;-71
2023/04/18 01:12:49;;;;;;;15.23;8.40;;;;;;;-146.07;100.00;70291.31;10420950;28;20021;-70
2023/04/18 01:17:51;;;;;;;15.90;8.57;;;;;;;-146.07;100.00;70291.31;10428696;28;20045;-72
2023/04/18 01:22:51;;;;;;;20.05;8.75;;;;;;;-146.07;100.00;70291.31;10427934;28;20298;-72
2023/04/18 01:27:53;;;;;;;17.02;8.45;;;;;;;-146.07;100.00;70291.31;10427936;28;20510;-72
2023/04/18 01:32:53;;;;;;;16.85;9.27;;;;;;;-146.07;100.00;70291.31;10409475;28;20399;-71
2023/04/18 01:37:54;;;;;;;15.63;8.45;;;;;;;-146.07;100.00;70291.31;10428250;28;20043;-71
2023/04/18 01:42:54;;;;;;;25.90;14.70;;;;;;;-146.07;100.00;70291.31;10427322;28;20041;-72
2023/04/18 01:47:55;;;;;;;30.00;12.88;;;;;;;-146.07;100.00;70291.31;10411747;28;20105;-73
2023/04/18 01:52:55;;;;;;;30.00;15.13;;;;;;;-146.07;100.00;70291.31;10425730;28;20140;-71
2023/04/18 01:57:55;;;;;;;27.80;15.73;;;;;;;-146.07;100.00;70291.31;10402110;28;20022;-71
2023/04/18 02:02:57;;;;;;;26.57;14.13;;;;;;;-146.07;100.00;70291.31;10405282;28;20033;-71
2023/04/18 02:07:58;;;;;;;26.20;13.70;;;;;;;-146.07;100.00;70291.31;10413862;28;20507;-71
2023/04/18 02:12:58;;;;;;;16.35;8.88;;;;;;;-146.07;100.00;70291.31;10425126;28;20149;-72
2023/04/18 02:18:01;;;;;;;17.30;10.80;;;;;;;-146.07;100.00;70291.31;10424946;28;20432;-72
2023/04/18 02:23:05;;;;;;;19.50;9.80;;;;;;;-146.07;100.00;70291.31;10420632;28;20095;-72
2023/04/18 02:28:06;;;;;;;17.70;9.77;;;;;;;-146.07;100.00;70291.31;10425980;28;20024;-73
2023/04/18 02:33:06;;;;;;;15.48;8.18;;;;;;;-146.07;100.00;70291.31;10421504;28;20032;-73
2023/04/18 02:38:07;;;;;;;13.32;7.70;;;;;;;-146.07;100.00;70291.31;10424927;28;20478;-73
2023/04/18 02:43:08;;;;;;;13.70;8.77;;;;;;;-146.07;100.00;70291.31;10417501;28;20067;-73
2023/04/18 02:48:08;;;;;;;16.77;9.77;;;;;;;-146.07;100.00;70291.31;10425237;28;20037;-72
2023/04/18 02:53:09;;;;;;;21.58;10.75;;;;;;;-146.07;100.00;70291.31;10424783;28;20701;-72
2023/04/18 02:58:10;;;;;;;20.10;11.77;;;;;;;-146.07;100.00;70291.31;10424281;28;20517;-73
2023/04/18 03:03:11;;;;;;;22.73;12.18;;;;;;;-146.07;100.00;70291.31;10424178;28;20094;-72
2023/04/18 03:08:12;;;;;;;27.20;15.52;;;;;;;-146.07;100.00;70291.31;10424067;28;20037;-73
2023/04/18 03:13:12;;;;;;;30.42;15.48;;;;;;;-146.07;100.00;70291.31;10424080;28;20089;-72
2023/04/18 03:18:13;;;;;;;29.03;16.20;;;;;;;-146.07;100.00;70291.31;10424194;28;20049;-71
2023/04/18 03:23:13;;;;;;;31.92;18.15;;;;;;;-146.07;100.00;70291.31;10423541;28;20299;-71
2023/04/18 03:28:14;;;;;;;27.93;14.17;;;;;;;-146.07;100.00;70291.31;10423852;28;20079;-73
2023/04/18 03:33:15;;;;;;;28.65;15.13;;;;;;;-146.07;100.00;70291.31;10424925;28;20278;-70
2023/04/18 03:38:16;;;;;;;30.40;16.27;;;;;;;-146.07;100.00;70291.31;10465299;28;20025;-71
2023/04/18 03:43:19;;;;;;;37.22;16.75;;;;;;;-146.07;100.00;70291.31;10423700;28;20040;-70
2023/04/18 03:48:20;;;;;;;35.03;17.80;;;;;;;-146.07;100.00;70291.31;10413461;28;20028;-71
2023/04/18 03:53:20;;;;;;;37.20;18.67;;;;;;;-146.07;100.00;70291.31;10422030;28;20713;-70
2023/04/18 03:58:22;;;;;;;38.30;19.20;;;;;;;-146.07;100.00;70291.31;10438258;28;20028;-71
2023/04/18 04:03:25;;;;;;;38.67;19.38;;;;;;;-146.07;100.00;70291.31;10435879;28;20025;-72
2023/04/18 04:08:25;;;;;;;40.22;20.50;;;;;;;-146.07;100.00;70291.31;10401822;28;20039;-72
2023/04/18 04:13:26;;;;;;;43.22;20.15;;;;;;;-146.07;100.00;70291.31;10402730;28;20073;-71
2023/04/18 04:18:29;;;;;;;43.75;20.80;;;;;;;-146.07;100.00;70291.31;10397139;28;20068;-70
2023/04/18 04:23:30;;;;;;;36.60;19.23;;;;;;;-146.07;100.00;70291.31;10401426;28;20098;-70
2023/04/18 04:28:30;;;;;;;35.15;18.75;;;;;;;-146.07;100.00;70291.31;10404975;28;20138;-68
2023/04/18 04:33:32;;;;;;;40.65;20.67;;;;;;;-146.07;100.00;70291.31;10418463;28;20492;-69
2023/04/18 04:38:37;;;;;;;29.42;16.60;;;;;;;-146.07;100.00;70291.31;10390851;28;20024;-69
2023/04/18 04:43:41;;;;;;;33.60;18.35;;;;;;;-146.07;100.00;70291.31;10420659;28;20033;-70
2023/04/18 04:48:42;;;;;;;30.40;16.85;;;;;;;-146.07;100.00;70291.31;10400846;28;20033;-69
2023/04/18 04:53:42;;;;;;;32.53;16.50;;;;;;;-146.07;100.00;70291.31;10401806;28;20032;-69
2023/04/18 04:58:44;;;;;;;29.75;15.38;;;;;;;-146.07;100.00;70291.31;10407540;28;20443;-69
2023/04/18 05:03:44;;;;;;;33.67;17.33;;;;;;;-146.07;100.00;70291.31;10395363;28;20543;-69
2023/04/18 05:08:48;;;;;;;31.63;16.73;;;;;;;-146.07;100.00;70291.31;10419419;28;20103;-69
2023/04/18 05:13:49;;;;;;;31.48;16.05;;;;;;;-146.07;100.00;70291.31;10407426;28;20051;-69
2023/04/18 05:18:49;;;;;;;27.15;15.25;;;;;;;-146.07;100.00;70291.31;10375493;28;20061;-68
2023/04/18 05:23:50;;;;;;;33.07;16.70;;;;;;;-146.07;100.00;70291.31;10422634;28;20037;-70
2023/04/18 05:28:50;;;;;;;29.33;15.05;;;;;;;-146.07;100.00;70291.31;10429547;28;20344;-70
2023/04/18 05:33:51;;;;;;;29.60;15.00;;;;;;;-146.07;100.00;70291.31;10405790;28;20028;-69
2023/04/18 05:38:51;;;;;;;32.80;15.77;;;;;;;-146.07;100.00;70291.31;10428623;28;20025;-69
2023/04/18 05:43:51;;;;;;;34.03;17.23;;;;;;;-146.07;100.00;70291.31;10429475;28;20032;-69
2023/04/18 05:48:52;;;;;;;30.93;15.73;;;;;;;-146.07;100.00;70291.31;10428239;28;20075;-69
2023/04/18 05:53:53;;;;;;;31.30;14.57;;;;;;;-146.07;100.00;70291.31;10427009;28;20271;-70
2023/04/18 05:58:53;;;;;;;24.70;13.38;;;;;;;-146.07;100.00;70291.31;10408848;28;20627;-70
2023/04/18 06:03:54;;;;;;;26.07;15.10;;;;;;;-146.07;100.00;70291.31;10426646;28;20082;-69
2023/04/18 06:08:54;;;;;;;26.50;14.80;;;;;;;-146.07;100.00;70291.31;10405932;28;20287;-69
2023/04/18 06:13:55;;;;;;;30.73;15.35;;;;;;;-146.07;100.00;70291.31;10428037;28;20032;-70
2023/04/18 06:18:57;;;;;;;24.73;13.70;;;;;;;-146.07;100.00;70291.31;10428544;28;20049;-71
2023/04/18 06:24:00;;;;;;;22.98;12.35;;;;;;;-146.07;100.00;70291.31;10430402;28;20515;-69
2023/04/18 06:29:00;;;;;;;25.05;12.68;;;;;;;-146.07;100.00;70291.31;10426994;28;20124;-69
2023/04/18 06:34:01;;;;;;;18.45;10.35;;;;;;;-146.07;100.00;70291.31;10409596;28;20032;-68
2023/04/18 06:39:01;;;;;;;20.80;11.30;;;;;;;-146.07;100.00;70291.31;10427775;28;20107;-68
2023/04/18 06:44:02;;;;;;;20.20;11.60;;;;;;;-146.07;100.00;70291.31;10426166;28;20033;-70
2023/04/18 06:49:02;;;;;;;22.23;11.88;;;;;;;-146.07;100.00;70291.31;10427653;28;20079;-69
2023/04/18 06:54:04;;;;;;;22.38;12.05;;;;;;;-146.07;100.00;70291.31;10428124;28;20053;-70
2023/04/18 06:59:05;;;;;;;20.65;11.32;;;;;;;-146.07;100.00;70291.31;10408794;28;20021;-69
2023/04/18 07:04:05;;;;;;;17.98;10.38;;;;;;;-146.07;100.00;70291.31;10427574;28;20036;-69
2023/04/18 07:09:05;;;;;;;21.08;10.63;;;;;;;-146.07;100.00;70291.31;10425395;28;20032;-69
2023/04/18 07:14:06;;;;;;;20.63;10.47;;;;;;;-146.07;100.00;70291.31;10425997;28;20474;-70
2023/04/18 07:19:07;;;;;;;19.63;10.02;;;;;;;-146.07;100.00;70291.31;10426306;28;20283;-69
2023/04/18 07:24:07;;;;;;;16.70;9.05;;;;;;;-146.07;100.00;70291.31;10436610;28;20045;-69
2023/04/18 07:29:08;;;;;;;14.18;8.80;;;;;;;-146.07;100.00;70291.31;10432734;28;20410;-69
2023/04/18 07:34:08;;;;;;;15.93;8.77;;;;;;;-146.07;100.00;70291.31;10425957;28;20055;-69
2023/04/18 07:39:09;;;;;;;16.00;9.13;;;;;;;-146.07;100.00;70291.31;10425461;28;20032;-70
2023/04/18 07:44:10;;;;;;;14.40;9.02;;;;;;;-146.07;100.00;70291.31;10425204;28;20035;-69
2023/04/18 07:49:10;;;;;;;17.15;9.68;;;;;;;-146.07;100.00;70291.31;10424080;28;20021;-70
2023/04/18 07:54:10;;;;;;;28.25;10.85;;;;;;;-146.07;100.00;70291.31;10422741;28;20031;-69
2023/04/18 07:59:11;;;;;;;14.23;8.70;;;;;;;-146.07;100.00;70291.31;10406148;28;20029;-69
2023/04/18 08:04:12;;;;;;;9.07;5.75;;;;;;;-146.07;100.00;70291.31;10384504;28;20072;-69
2023/04/18 08:09:12;;;;;;;13.20;7.07;;;;;;;-146.07;100.00;70291.31;10424726;28;20136;-70
2023/04/18 08:14:12;;;;;;;9.57;5.75;;;;;;;-146.07;100.00;70291.31;10424467;28;20025;-69
2023/04/18 08:19:13;;;;;;;11.60;5.68;;;;;;;-146.07;100.00;70291.31;10424699;28;20439;-69
2023/04/18 08:24:13;;;;;;;8.13;4.93;;;;;;;-146.07;100.00;70291.31;10424453;28;20032;-69
2023/04/18 08:29:14;;;;;;;7.68;4.60;;;;;;;-146.07;100.00;70291.31;10424920;28;20044;-69
2023/04/18 08:34:14;;;;;;;7.80;4.65;;;;;;;-146.07;100.00;70291.31;10432762;28;20155;-68
2023/04/18 08:39:15;;;;;;;9.65;5.28;;;;;;;-146.07;100.00;70291.31;10462506;28;20021;-69
2023/04/18 08:44:16;;;;;;;7.05;4.68;;;;;;;-146.07;100.00;70291.31;10473688;28;20020;-69
2023/04/18 08:49:17;;;;;;;5.68;4.57;;;;;;;-146.07;100.00;70291.31;10473715;28;20032;-69
2023/04/18 08:54:21;;;;;;;6.95;4.28;;;;;;;-146.07;100.00;70291.31;10436279;28;20032;-69
2023/04/18 08:59:22;;;;;;;7.55;4.65;;;;;;;-146.07;100.00;70291.31;10430005;28;20032;-71
2023/04/18 09:04:52;;;;;;;10.13;5.75;;;;;;;-146.07;100.00;70291.31;10433587;28;20028;-70
2023/04/18 09:09:56;;;;;;;7.13;3.75;;;;;;;-146.07;100.00;70291.31;10431253;28;20072;-69
2023/04/18 09:15:15;;;;;;;7.78;4.78;;;;;;;-146.07;100.00;70291.31;10438498;28;20082;-69
2023/04/18 09:20:33;;;;;;;9.82;5.25;;;;;;;-146.07;100.00;70291.31;10417561;28;20037;-69
2023/04/18 09:25:41;;;;;;;5.65;4.60;;;;;;;-146.07;100.00;70291.31;10429109;28;20032;-69
2023/04/18 09:30:42;;;;;;;6.95;4.88;;;;;;;-146.07;100.00;70291.31;10429130;28;20077;-69
2023/04/18 09:35:42;;;;;;;9.40;5.38;;;;;;;-146.07;100.00;70291.31;10430360;28;20111;-69
2023/04/18 09:40:43;;;;;;;5.93;3.75;;;;;;;-146.07;100.00;70291.31;10430073;28;20408;-70
2023/04/18 09:45:46;;;;;;;6.78;4.93;;;;;;;-146.07;100.00;70291.31;10429818;28;20431;-70
2023/04/18 09:50:47;;;;;;;7.35;4.07;;;;;;;-146.07;100.00;70291.31;10428460;28;20452;-69
2023/04/18 09:55:54;;;;;;;6.40;4.40;;;;;;;-146.07;100.00;70291.31;10429575;28;20040;-69
2023/04/18 10:00:55;;;;;;;5.00;3.55;;;;;;;-146.07;100.00;70291.31;10411365;28;20025;-70
2023/04/18 10:05:56;;;;;;;6.47;3.08;;;;;;;-146.07;100.00;70291.31;10429133;28;20033;-70
2023/04/18 10:10:57;;;;;;;5.90;3.50;;;;;;;-146.07;100.00;70291.31;10429043;28;20380;-69
2023/04/18 10:15:58;;;;;;;9.10;3.17;;;;;;;-146.07;100.00;70291.31;10428172;28;20045;-70
2023/04/18 10:21:02;;;;;;;6.20;2.92;;;;;;;-146.07;100.00;70291.31;10428358;28;20016;-69
2023/04/18 10:26:05;;;;;;;6.72;3.63;;;;;;;-146.07;100.00;70291.31;10428381;28;20033;-70
2023/04/18 10:31:06;;;;;;;3.83;2.53;;;;;;;-146.07;100.00;70291.31;10428390;28;20718;-69
2023/04/18 10:36:15;;;;;;;6.22;3.30;;;;;;;-146.07;100.00;70291.31;10427957;28;20028;-70
2023/04/18 10:41:20;;;;;;;5.90;3.15;;;;;;;-146.07;100.00;70291.31;10428061;28;20406;-69
2023/04/18 10:46:20;;;;;;;4.20;1.65;;;;;;;-146.07;100.00;70291.31;10409563;28;20029;-70
2023/04/18 10:51:20;;;;;;;1.97;1.30;;;;;;;-146.07;100.00;70291.31;10415914;28;20029;-70
2023/04/18 10:56:21;;;;;;;2.30;1.40;;;;;;;-146.07;100.00;70291.31;10410766;28;20267;-69
2023/04/18 11:01:29;;;;;;;4.47;2.10;;;;;;;-146.07;100.00;70291.31;10427042;28;20056;-69
2023/04/18 11:06:30;;;;;;;4.93;2.30;;;;;;;-146.07;100.00;70291.31;10426816;28;20033;-69
2023/04/18 11:11:40;;;;;;;3.70;2.00;;;;;;;-146.07;100.00;70291.31;10426586;28;20490;-69
2023/04/18 11:16:44;;;;;;;4.38;2.65;;;;;;;-146.07;100.00;70291.31;10426152;28;20421;-69
2023/04/18 11:21:44;;;;;;;9.18;2.53;;;;;;;-146.07;100.00;70291.31;10424627;28;20100;-69
2023/04/18 11:26:45;;;;;;;8.60;3.03;;;;;;;-146.07;100.00;70291.31;10426120;28;20035;-69
2023/04/18 11:31:52;;;;;;;5.32;2.88;;;;;;;-146.07;100.00;70291.31;10425641;28;20029;-68
2023/04/18 11:36:52;;;;;;;8.75;2.50;;;;;;;-146.07;100.00;70291.31;10418618;28;20035;-70
2023/04/18 11:41:55;;;;;;;8.48;1.88;;;;;;;-146.07;100.00;70291.31;10410183;28;20496;-69
2023/04/18 11:46:55;;;;;;;2.70;1.73;;;;;;;-146.07;100.00;70291.31;10425108;28;20025;-69
2023/04/18 11:51:57;;;;;;;3.03;1.58;;;;;;;-146.07;100.00;70291.31;10425422;28;20024;-69
2023/04/18 11:56:57;;;;;;;12.48;3.80;;;;;;;-146.07;100.00;70291.31;10425410;28;20029;-69
2023/04/18 12:02:00;;;;;;;5.95;1.80;;;;;;;-146.07;100.00;70291.31;10424730;28;20035;-68
2023/04/18 12:07:01;;;;;;;3.08;2.08;;;;;;;-146.07;100.00;70291.31;10424092;28;20633;-68
2023/04/18 12:12:02;;;;;;;4.55;1.75;;;;;;;-146.07;100.00;70291.31;10423258;28;20024;-69
2023/04/18 12:17:03;;;;;;;1.88;1.10;;;;;;;-146.07;100.00;70291.31;10414260;28;20049;-69
2023/04/18 12:22:08;;;;;;;4.97;2.10;;;;;;;-146.07;100.00;70291.31;10400748;28;20036;-69
2023/04/18 12:27:10;;;;;;;3.20;1.95;;;;;;;-146.07;100.00;70291.31;10398429;28;20053;-71
2023/04/18 12:32:11;;;;;;;4.72;1.88;;;;;;;-146.07;100.00;70291.31;10398981;28;20036;-70
2023/04/18 12:37:11;;;;;;;2.50;1.27;;;;;;;-146.07;100.00;70291.31;10394730;28;20040;-71
2023/04/18 12:42:12;;;;;;;3.45;1.75;;;;;;;-146.07;100.00;70291.31;10399003;28;20103;-68
2023/04/18 12:47:12;;;;;;;4.82;1.73;;;;;;;-146.07;100.00;70291.31;10395863;28;20086;-69
2023/04/18 12:52:14;;;;;;;2.83;1.27;;;;;;;-146.07;100.00;70291.31;10398476;28;20094;-69
2023/04/18 12:57:16;;;;;;;7.50;1.40;;;;;;;-146.07;100.00;70291.31;10388254;28;20037;-69
2023/04/18 13:02:16;;;;;;;3.08;1.13;;;;;;;-146.07;100.00;70291.31;10400697;28;20462;-69
2023/04/18 13:07:18;;;;;;;3.33;1.42;;;;;;;-146.07;100.00;70291.31;10402575;28;20090;-71
2023/04/18 13:12:18;;;;;;;2.95;1.15;;;;;;;-146.07;100.00;70291.31;10399923;28;20049;-70
2023/04/18 13:17:19;;;;;;;3.33;1.08;;;;;;;-146.07;100.00;70291.31;10401553;28;20420;-68
2023/04/18 13:22:20;;;;;;;7.77;2.67;;;;;;;-146.07;100.00;70291.31;10406573;28;20025;-70
2023/04/18 13:27:20;;;;;;;4.70;1.67;;;;;;;-146.07;100.00;70291.31;10404104;28;20352;-70
2023/04/18 13:32:21;;;;;;;4.77;1.40;;;;;;;-146.07;100.00;70291.31;10397847;28;20043;-71
2023/04/18 13:37:21;;;;;;;2.97;1.60;;;;;;;-146.07;100.00;70291.31;10408832;28;20401;-70
2023/04/18 13:42:22;;;;;;;2.55;0.70;;;;;;;-146.07;100.00;70291.31;10400482;28;20091;-69
2023/04/18 13:47:22;;;;;;;3.10;1.33;;;;;;;-146.07;100.00;70291.31;10402741;28;20045;-69
2023/04/18 13:52:23;;;;;;;2.20;1.27;;;;;;;-146.07;100.00;70291.31;10394482;28;20465;-69
2023/04/18 13:57:24;;;;;;;1.98;0.98;;;;;;;-146.07;100.00;70291.31;10408735;28;20025;-69
2023/04/18 14:02:24;;;;;;;2.65;1.30;;;;;;;-146.07;100.00;70291.31;10405829;28;20468;-69
2023/04/18 14:07:25;;;;;;;1.83;1.00;;;;;;;-146.07;100.00;70291.31;10401540;28;20468;-69
2023/04/18 14:12:25;;;;;;;3.28;0.70;;;;;;;-146.07;100.00;70291.31;10408663;28;20029;-71
2023/04/18 14:17:26;;;;;;;7.55;0.90;;;;;;;-146.07;100.00;70291.31;10393526;28;20055;-70
2023/04/18 14:22:26;;;;;;;5.67;0.77;;;;;;;-146.07;100.00;70291.31;10399105;28;20804;-70
2023/04/18 14:27:27;;;;;;;3.88;0.50;;;;;;;-146.07;100.00;70291.31;10407482;28;20307;-70
2023/04/18 14:32:28;;;;;;;1.33;1.00;;;;;;;-146.07;100.00;70291.31;10421612;28;20043;-70
2023/04/18 14:37:34;;;;;;;2.92;1.00;;;;;;;-146.07;100.00;70291.31;10426804;28;20033;-71
2023/04/18 14:42:34;;;;;;;3.30;1.00;;;;;;;-146.07;100.00;70291.31;10427011;28;20112;-70
2023/04/18 14:47:37;;;;;;;5.77;0.97;;;;;;;-146.07;100.00;70291.31;10427205;28;20472;-69
2023/04/18 14:52:38;;;;;;;0.75;0.45;;;;;;;-146.07;100.00;70291.31;10424812;28;20654;-69
2023/04/18 14:57:39;;;;;;;1.73;0.88;;;;;;;-146.07;100.00;70291.31;10407040;28;20032;-70
2023/04/18 15:02:40;;;;;;;3.83;0.80;;;;;;;-146.07;100.00;70291.31;10423351;28;20487;-69
2023/04/18 15:07:42;;;;;;;2.28;0.52;;;;;;;-146.07;100.00;70291.31;10424904;28;20036;-68
2023/04/18 15:12:42;;;;;;;1.92;0.80;;;;;;;-146.07;100.00;70291.31;10424167;28;20040;-70
2023/04/18 15:17:43;;;;;;;1.45;0.65;;;;;;;-146.07;100.00;70291.31;10446287;28;20047;-69
2023/04/18 15:22:43;;;;;;;5.07;0.85;;;;;;;-146.07;100.00;70291.31;10433164;28;20064;-69
2023/04/18 15:27:44;;;;;;;3.43;1.03;;;;;;;-146.07;100.00;70291.31;10425751;28;20033;-69
2023/04/18 15:32:44;;;;;;;5.33;1.00;;;;;;;-146.07;100.00;70291.31;10398829;28;20041;-69
2023/04/18 15:37:44;;;;;;;4.15;0.90;;;;;;;-146.07;100.00;70291.31;10384352;28;20801;-69
2023/04/18 15:42:45;;;;;;;1.90;0.43;;;;;;;-146.07;100.00;70291.31;10407240;28;20109;-69
2023/04/18 15:47:45;;;;;;;2.65;0.52;;;;;;;-146.07;100.00;70291.31;10425063;28;20283;-67
2023/04/18 15:52:46;;;;;;;4.38;0.68;;;;;;;-146.07;100.00;70291.31;10425460;28;20036;-69
2023/04/18 15:57:46;;;;;;;0.52;0.43;;;;;;;-146.07;100.00;70291.31;10424931;28;20485;-69
2023/04/18 16:02:48;;;;;;;2.07;0.60;;;;;;;-146.07;100.00;70291.31;10423998;28;20029;-69
2023/04/18 16:07:48;;;;;;;2.88;0.57;;;;;;;-146.07;100.00;70291.31;10424816;28;20075;-70
2023/04/18 16:12:49;;;;;;;1.67;0.60;;;;;;;-146.07;100.00;70291.31;10423168;28;20227;-69
2023/04/18 16:17:49;;;;;;;3.17;0.50;;;;;;;-146.07;100.00;70291.31;10424246;28;20041;-68
2023/04/18 16:22:49;;;;;;;0.50;0.30;;;;;;;-146.07;100.00;70291.31;10414933;28;20052;-67
2023/04/18 16:27:50;;;;;;;0.88;0.77;;;;;;;-146.07;100.00;70291.31;10426001;28;20310;-69
2023/04/18 16:32:50;;;;;;;2.05;0.90;;;;;;;-146.07;100.00;70291.31;10424492;28;20496;-68
2023/04/18 16:37:51;;;;;;;2.83;1.13;;;;;;;-146.07;100.00;70291.31;10423915;28;20120;-69
2023/04/18 16:42:51;;;;;;;0.75;0.60;;;;;;;-146.07;100.00;70291.31;10424170;28;20021;-68
2023/04/18 16:47:52;;;;;;;2.37;0.50;;;;;;;-146.07;100.00;70291.31;10389062;28;20774;-68
2023/04/18 16:52:52;;;;;;;3.47;1.07;;;;;;;-146.07;100.00;70291.31;10387699;28;20420;-68
2023/04/18 16:57:52;;;;;;;2.95;1.27;;;;;;;-146.07;100.00;70291.31;10418603;28;20788;-69
2023/04/18 17:02:54;;;;;;;5.23;1.47;;;;;;;-146.07;100.00;70291.31;10432382;28;20063;-68
2023/04/18 17:07:54;;;;;;;3.05;1.15;;;;;;;-146.07;100.00;70291.31;10431741;28;20472;-69
2023/04/18 17:12:55;;;;;;;2.93;1.60;;;;;;;-146.07;100.00;70291.31;10406830;28;20028;-69
2023/04/18 17:17:58;;;;;;;4.68;1.48;;;;;;;-146.07;100.00;70291.31;10429644;28;20113;-69
2023/04/18 17:22:59;;;;;;;4.47;2.25;;;;;;;-146.07;100.00;70291.31;10390469;28;20065;-69
2023/04/18 17:28:02;;;;;;;7.32;2.38;;;;;;;-146.07;100.00;70291.31;10416688;28;20483;-69
2023/04/18 17:33:03;;;;;;;5.13;2.42;;;;;;;-146.07;100.00;70291.31;10423895;28;20431;-69
2023/04/18 17:38:03;;;;;;;2.97;1.90;;;;;;;-146.07;100.00;70291.31;10430117;28;20043;-68
2023/04/18 17:43:04;;;;;;;5.90;2.53;;;;;;;-146.07;100.00;70291.31;10430023;28;20078;-68
2023/04/18 17:48:04;;;;;;;8.02;2.10;;;;;;;-146.07;100.00;70291.31;10429332;28;20090;-67
2023/04/18 17:53:05;;;;;;;6.80;1.73;;;;;;;-146.07;100.00;70291.31;10431115;28;20029;-68
2023/04/18 17:58:05;;;;;;;3.15;1.85;;;;;;;-146.07;100.00;70291.31;10429088;28;20128;-68
2023/04/18 18:03:12;;;;;;;8.90;2.63;;;;;;;-146.07;100.00;70291.31;10424138;28;20025;-68
2023/04/18 18:08:12;;;;;;;6.80;1.77;;;;;;;-146.07;100.00;70291.31;10409948;28;20033;-68
2023/04/18 18:13:12;;;;;;;7.20;2.22;;;;;;;-146.07;100.00;70291.31;10428773;28;20047;-69
2023/04/18 18:18:13;;;;;;;13.75;5.75;;;;;;;-146.07;100.00;70291.31;10428782;28;20395;-69
2023/04/18 18:23:13;;;;;;;2.47;1.60;;;;;;;-146.07;100.00;70291.31;10410471;28;20082;-69
2023/04/18 18:28:14;;;;;;;5.50;3.17;;;;;;;-146.07;100.00;70291.31;10428552;28;20287;-68
2023/04/18 18:33:14;;;;;;;3.40;2.00;;;;;;;-146.07;100.00;70291.31;10427820;28;20538;-68
2023/04/18 18:38:15;;;;;;;6.82;3.08;;;;;;;-146.07;100.00;70291.31;10427290;28;20029;-68
2023/04/18 18:43:15;;;;;;;5.72;2.35;;;;;;;-146.07;100.00;70291.31;10427307;28;20033;-68
2023/04/18 18:48:16;;;;;;;5.78;3.13;;;;;;;-146.07;100.00;70291.31;10427795;28;20411;-68
2023/04/18 18:53:16;;;;;;;6.10;3.13;;;;;;;-146.07;100.00;70291.31;10427528;28;20032;-68
2023/04/18 18:58:17;;;;;;;4.20;2.60;;;;;;;-146.07;100.00;70291.31;10428137;28;20043;-69
2023/04/18 19:03:19;;;;;;;6.97;3.70;;;;;;;-146.07;100.00;70291.31;10427282;28;20436;-68
2023/04/18 19:08:20;;;;;;;16.38;2.92;;;;;;;-146.07;100.00;70291.31;10414974;28;20033;-69
2023/04/18 19:13:22;;;;;;;12.10;4.00;;;;;;;-146.07;100.00;70291.31;10385181;28;20041;-69
2023/04/18 19:18:22;;;;;;;8.82;4.30;;;;;;;-146.07;100.00;70291.31;10408214;28;20830;-69
2023/04/18 19:23:24;;;;;;;7.27;4.30;;;;;;;-146.07;100.00;70291.31;10428788;28;20036;-69
2023/04/18 19:28:24;;;;;;;10.65;4.20;;;;;;;-146.07;100.00;70291.31;10467552;28;20287;-69
2023/04/18 19:33:26;;;;;;;10.27;4.90;;;;;;;-146.07;100.00;70291.31;10446452;28;20028;-69
2023/04/18 19:38:26;;;;;;;12.35;5.00;;;;;;;-146.07;100.00;70291.31;10426029;28;20021;-69
2023/04/18 19:43:27;;;;;;;2.67;1.70;;;;;;;-146.07;100.00;70291.31;10418666;28;20051;-69
2023/04/18 19:48:27;;;;;;;3.75;1.55;;;;;;;-146.07;100.00;70291.31;10417543;28;20287;-68
2023/04/18 19:53:28;;;;;;;2.37;1.23;;;;;;;-146.07;100.00;70291.31;10401189;28;20017;-70
2023/04/18 19:58:43;;;;;;;5.90;1.48;;;;;;;-146.07;100.00;70291.31;10408526;28;20430;-69
2023/04/18 20:03:44;;;;;;;2.63;1.25;;;;;;;-146.07;100.00;70291.31;10414184;28;20113;-69
2023/04/18 20:08:45;;;;;;;3.67;1.27;;;;;;;-146.07;100.00;70291.31;10406324;28;20017;-69
2023/04/18 20:13:45;;;;;;;4.45;1.38;;;;;;;-146.07;100.00;70291.31;10392351;28;20025;-69
2023/04/18 20:18:46;;;;;;;3.13;2.00;;;;;;;-146.07;100.00;70291.31;10406651;28;20543;-69
2023/04/18 20:23:46;;;;;;;2.33;1.20;;;;;;;-146.07;100.00;70291.31;10417518;28;20275;-69
2023/04/18 20:28:47;;;;;;;3.55;1.55;;;;;;;-146.07;100.00;70291.31;10430964;28;20112;-69
2023/04/18 20:33:47;;;;;;;1.88;0.82;;;;;;;-146.07;100.00;70291.31;10433525;28;20033;-68
2023/04/18 20:38:49;;;;;;;1.13;0.67;;;;;;;-146.07;100.00;70291.31;10406464;28;20028;-69
2023/04/18 20:43:52;;;;;;;1.60;0.45;;;;;;;-146.07;100.00;70291.31;10406863;28;20271;-70
2023/04/18 20:48:52;;;;;;;0.75;0.60;;;;;;;-146.07;100.00;70291.31;10427544;28;20062;-70
2023/04/18 20:53:53;;;;;;;0.53;0.43;;;;;;;-146.07;100.00;70291.31;10421109;28;20379;-70
2023/04/18 20:58:53;;;;;;;1.03;0.80;;;;;;;-146.07;100.00;70291.31;10420224;28;20268;-69
2023/04/18 21:03:54;;;;;;;1.95;0.60;;;;;;;-146.07;100.00;70291.31;10415304;28;20271;-70
2023/04/18 21:08:54;;;;;;;0.88;0.75;;;;;;;-146.07;100.00;70291.31;10429173;28;20111;-70
2023/04/18 21:13:55;;;;;;;3.10;0.90;;;;;;;-146.07;100.00;70291.31;10425949;28;20376;-70
2023/04/18 21:18:55;;;;;;;3.42;1.40;;;;;;;-146.07;100.00;70291.31;10422951;28;20523;-70
2023/04/18 21:23:56;;;;;;;5.45;1.83;;;;;;;-146.07;100.00;70291.31;10439287;28;20053;-70
2023/04/18 21:29:03;;;;;;;2.78;1.40;;;;;;;-146.07;100.00;70291.31;10428201;28;20040;-70
2023/04/18 21:34:04;;;;;;;5.30;2.30;;;;;;;-146.07;100.00;70291.31;10427852;28;20458;-70
2023/04/18 21:39:04;;;;;;;2.92;1.90;;;;;;;14.24;100.00;93987.44;10427759;28;20101;-70
2023/04/18 21:44:05;;;;;;;5.17;1.80;;;;;;;9.55;100.00;94425.69;10427924;28;20037;-70
2023/04/18 21:49:05;;;;;;;3.83;1.60;;;;;;;9.59;100.00;94421.38;10427324;28;20302;-70
2023/04/18 21:54:06;;;;;;;1.92;1.27;;;;;;;9.52;100.00;94412.81;10427635;28;20263;-70
2023/04/18 21:59:08;;;;;;;1.55;1.10;;;;;;;9.31;100.00;94420.13;10427011;28;20454;-70
2023/04/18 22:04:08;;;;;;;2.78;1.02;;;;;;;9.31;100.00;94431.66;10427069;28;20033;-70
2023/04/18 22:09:10;;;;;;;0.88;0.50;;;;;;;9.39;100.00;94425.72;10426937;28;20103;-70
2023/04/18 22:14:11;;;;;;;1.95;1.65;;;;;;;9.52;100.00;94426.22;10426516;28;20036;-70
2023/04/18 22:19:12;;;;;;;6.35;3.88;;;;;;;9.51;100.00;94422.72;10386167;28;1210534;-69
2023/04/18 22:24:13;;;;;;;5.95;4.45;;;;;;;9.52;100.00;94421.66;10429834;28;20367;-69